KONT/ONT METAR and TAF weather

Enter ICAO airport designator
Station Type Date Time Source
KONT METAR 2021/05/10 23:53 UTC NOAA

KONT 102353Z 26008KT 10SM FEW035 22/11 A2988 RMK AO2 SLP108 T02220111 10228 20172 56008


Station Type Date Time Source
KONT Decoded METAR 2021/05/10 23:53 UTC NOAA

ONTARIO INTERNATIONAL AIRPORT, CA, United States (KONT) 34-03N 117-35W 275M
May 10, 2021 - 07:53 PM EDT / 2021.05.10 2353 UTC
Wind: from the W (260 degrees) at 9 MPH (8 KT):0
Visibility: 10 mile(s):0
Sky conditions: mostly clear
Temperature: 72.0 F (22.2 C)
Dew Point: 52.0 F (11.1 C)
Relative Humidity: 49%
Pressure (altimeter): 29.88 in. Hg (1011 hPa)
Pressure tendency: 0.02 inches (0.8 hPa) lower than three hours ago
ob: KONT 102353Z 26008KT 10SM FEW035 22/11 A2988 RMK AO2 SLP108 T02220111 10228 20172 56008
cycle: 0

Station Type Date Time Source
KONT TAF 2021/05/10 19:03 UTC NOAA

TAF
AMD KONT 101901Z 1019/1124 VRB06KT P6SM BKN024 OVC030
FM102030 25012KT P6SM SKC
FM110300 24006KT P6SM FEW015
FM110800 VRB04KT P6SM BKN010
FM111600 26007KT P6SM SCT015
FM112100 26012KT P6SM SKC

Example: see airport list